Time;durP1;ratioP1;P1;durP2;ratioP2;P2;SDS_P1;SDS_P2;PMS_P1;PMS_P2;Temp;Humidity;BMP_temperature;BMP_pressure;BME280_temperature;BME280_humidity;BME280_pressure;Samples;Min_cycle;Max_cycle;Signal;HPM_P1;HPM_P2
2023/03/15 00:00:52;;;;;;;15.63;2.47;;;;;;;-144.73;98.21;54493.91;5017729;28;20029;-76
2023/03/15 00:03:18;;;;;;;16.03;2.07;;;;;;;-144.73;98.67;54473.38;5016621;28;20029;-76
2023/03/15 00:05:45;;;;;;;20.17;2.23;;;;;;;-144.73;98.51;54461.06;5050097;28;20027;-75
2023/03/15 00:08:12;;;;;;;16.20;3.00;;;;;;;-144.73;98.72;54477.47;5034129;28;20564;-76
2023/03/15 00:10:41;;;;;;;6.90;1.40;;;;;;;-144.73;99.37;54510.31;5025066;28;20079;-76
2023/03/15 00:13:08;;;;;;;12.23;1.73;;;;;;;-144.73;99.10;54448.75;5035745;28;20170;-76
2023/03/15 00:15:33;;;;;;;13.47;2.43;;;;;;;-144.73;99.42;54481.59;5045955;28;20056;-76
2023/03/15 00:18:02;;;;;;;12.33;2.00;;;;;;;-144.73;99.69;54473.38;5053590;28;20068;-76
2023/03/15 00:20:27;;;;;;;8.63;1.50;;;;;;;-144.73;99.51;54481.59;5036927;28;20052;-76
2023/03/15 00:22:53;;;;;;;12.60;3.50;;;;;;;-144.73;99.60;54473.38;5043065;28;20062;-76
2023/03/15 00:25:18;;;;;;;12.50;1.83;;;;;;;-144.73;99.55;54420.00;5016813;28;20030;-76
2023/03/15 00:27:43;;;;;;;17.33;2.03;;;;;;;-144.73;99.61;54502.13;5033879;28;20063;-76
2023/03/15 00:30:09;;;;;;;16.27;2.77;;;;;;;-144.73;99.83;54481.59;5028099;28;20061;-76
2023/03/15 00:40:16;;;;;;;14.20;2.40;;;;;;;-144.73;100.00;54473.38;4899639;29;20149;-83
2023/03/15 00:43:18;;;;;;;15.07;2.10;;;;;;;-144.73;100.00;54493.91;4903792;29;20044;-83
2023/03/15 00:50:18;;;;;;;12.90;2.10;;;;;;;-144.73;100.00;54481.59;4994781;28;20054;-83
2023/03/15 00:53:01;;;;;;;19.20;2.93;;;;;;;-144.73;100.00;54493.91;5015813;23;20140;-75
2023/03/15 00:55:27;;;;;;;19.73;2.60;;;;;;;-144.73;100.00;54473.38;5023263;28;20497;-75
2023/03/15 00:57:52;;;;;;;7.53;2.00;;;;;;;-144.73;100.00;54485.69;5022644;28;20071;-75
2023/03/15 01:00:23;;;;;;;25.47;2.83;;;;;;;-144.73;100.00;54506.22;5002282;28;20033;-74
2023/03/15 01:02:48;;;;;;;10.52;2.20;;;;;;;-144.73;100.00;54506.22;4994517;28;20104;-74
2023/03/15 01:05:14;;;;;;;16.53;2.93;;;;;;;-144.73;99.93;54481.59;5000177;28;20029;-75
2023/03/15 01:07:39;;;;;;;13.07;2.57;;;;;;;-144.73;100.00;54493.91;4997380;28;20494;-74
2023/03/15 01:10:06;;;;;;;7.83;2.67;;;;;;;-144.73;100.00;54473.38;4991219;28;20053;-75
2023/03/15 01:12:32;;;;;;;12.87;2.27;;;;;;;-144.73;100.00;54498.00;4998062;28;20052;-75
2023/03/15 01:14:59;;;;;;;16.87;3.40;;;;;;;-144.73;100.00;54485.69;4995691;28;20021;-74
2023/03/15 01:17:24;;;;;;;14.27;3.70;;;;;;;-144.73;99.94;54502.13;4994607;28;20034;-75
2023/03/15 01:19:50;;;;;;;16.03;2.83;;;;;;;-144.73;100.00;54498.00;4986556;28;20081;-75
2023/03/15 01:22:17;;;;;;;12.27;3.43;;;;;;;-144.73;100.00;54477.47;4994365;28;20030;-75
2023/03/15 01:24:42;;;;;;;16.70;4.07;;;;;;;-144.73;100.00;54415.91;4993426;28;20026;-74
2023/03/15 01:27:08;;;;;;;14.33;3.33;;;;;;;-144.73;100.00;54506.22;4994853;28;20041;-74
2023/03/15 01:29:33;;;;;;;19.90;3.00;;;;;;;-144.73;100.00;54483.66;4986476;28;20057;-75
2023/03/15 01:31:58;;;;;;;19.97;4.20;;;;;;;-144.73;100.00;54485.69;5002040;28;20038;-74
2023/03/15 01:34:24;;;;;;;16.00;3.43;;;;;;;-144.73;100.00;54502.13;4996314;28;20033;-74
2023/03/15 01:36:53;;;;;;;18.23;3.30;;;;;;;-144.73;100.00;54506.22;4993501;28;20034;-75
2023/03/15 01:39:19;;;;;;;22.33;4.13;;;;;;;-144.73;100.00;54485.69;5012157;28;20470;-74
2023/03/15 01:41:44;;;;;;;20.53;3.13;;;;;;;-144.73;100.00;54446.69;4985875;28;20103;-75
2023/03/15 01:44:17;;;;;;;20.87;3.03;;;;;;;-144.73;100.00;54473.38;4994806;28;20022;-75
2023/03/15 01:46:43;;;;;;;10.63;3.20;;;;;;;-144.73;100.00;54493.91;4993712;28;20049;-74
2023/03/15 01:49:12;;;;;;;12.30;3.33;;;;;;;-144.73;100.00;54491.84;4994161;28;20022;-76
2023/03/15 01:51:58;;;;;;;15.50;3.10;;;;;;;-144.73;100.00;54467.22;4993709;28;20033;-75
2023/03/15 01:54:32;;;;;;;14.93;4.37;;;;;;;-144.73;100.00;54481.59;4993965;28;20026;-74
2023/03/15 01:57:05;;;;;;;19.47;4.23;;;;;;;-144.73;100.00;54477.47;4993563;28;20041;-75
2023/03/15 01:59:34;;;;;;;19.30;4.20;;;;;;;-144.73;100.00;54485.69;4994585;28;20030;-75
2023/03/15 02:02:00;;;;;;;12.13;5.40;;;;;;;-144.73;100.00;54485.69;4985093;28;20038;-74
2023/03/15 02:04:55;;;;;;;25.10;7.13;;;;;;;-144.73;100.00;54516.47;4994318;28;20025;-74
2023/03/15 02:07:25;;;;;;;20.87;7.27;;;;;;;-144.73;100.00;54485.69;4997415;28;20075;-74
2023/03/15 02:10:01;;;;;;;20.10;7.50;;;;;;;-144.73;100.00;54465.16;5012258;28;20022;-74
2023/03/15 02:12:29;;;;;;;23.03;7.10;;;;;;;-144.73;100.00;54461.06;4993811;28;20346;-75
2023/03/15 02:14:56;;;;;;;22.73;9.77;;;;;;;-144.73;100.00;54483.66;4993808;28;20030;-74
2023/03/15 02:17:27;;;;;;;23.97;8.10;;;;;;;-144.73;100.00;54471.31;4993706;28;20034;-76
2023/03/15 02:20:08;;;;;;;22.50;8.32;;;;;;;-144.73;100.00;54506.22;4993881;28;20034;-74
2023/03/15 02:22:54;;;;;;;23.07;7.47;;;;;;;-144.73;100.00;54543.16;4993919;28;20042;-75
2023/03/15 02:25:37;;;;;;;18.33;6.77;;;;;;;-144.73;100.00;54448.75;5001886;28;20061;-74
2023/03/15 02:28:06;;;;;;;16.17;6.50;;;;;;;-144.73;100.00;54469.28;5011137;28;20030;-75
2023/03/15 02:30:32;;;;;;;16.37;6.13;;;;;;;-144.73;100.00;54481.59;4983123;28;20061;-74
2023/03/15 02:33:01;;;;;;;18.67;5.93;;;;;;;-144.73;100.00;54485.69;5008190;28;20053;-76
2023/03/15 02:35:30;;;;;;;14.70;5.33;;;;;;;-144.73;100.00;54539.06;5003637;28;20088;-76
2023/03/15 02:37:56;;;;;;;12.20;5.17;;;;;;;-144.73;100.00;54473.38;4994976;28;20042;-74
2023/03/15 02:40:23;;;;;;;11.00;4.93;;;;;;;-144.73;100.00;54551.38;4993854;28;20034;-76
2023/03/15 02:43:02;;;;;;;10.77;4.90;;;;;;;-144.73;100.00;54465.16;4985186;28;20034;-76
2023/03/15 02:45:30;;;;;;;10.77;5.00;;;;;;;-144.73;100.00;54518.53;4993330;28;20032;-76
2023/03/15 02:47:56;;;;;;;11.13;5.17;;;;;;;-144.73;100.00;54502.13;5010682;28;20042;-76
2023/03/15 02:50:21;;;;;;;9.20;4.33;;;;;;;-144.73;100.00;54485.69;4993707;28;20018;-74
2023/03/15 02:52:47;;;;;;;9.77;4.43;;;;;;;-144.73;100.00;54469.28;4993255;28;20069;-76
2023/03/15 02:55:12;;;;;;;18.87;5.57;;;;;;;-144.73;100.00;54465.16;5009413;28;20093;-74
2023/03/15 02:57:38;;;;;;;17.67;5.27;;;;;;;-144.73;100.00;54510.31;4993332;28;20116;-75
2023/03/15 03:00:12;;;;;;;11.97;5.47;;;;;;;-144.73;100.00;54485.69;5025102;28;20022;-76
2023/03/15 03:02:38;;;;;;;19.27;5.87;;;;;;;-144.73;100.00;54452.84;4993256;28;20109;-74
2023/03/15 03:05:04;;;;;;;17.80;5.90;;;;;;;-144.73;100.00;54498.00;5017768;28;20046;-74
2023/03/15 03:07:29;;;;;;;14.37;5.03;;;;;;;-144.73;100.00;54514.44;4993471;28;20034;-73
2023/03/15 03:09:55;;;;;;;12.27;4.60;;;;;;;-144.73;100.00;54485.69;4988962;28;20057;-76
2023/03/15 03:12:21;;;;;;;9.47;4.90;;;;;;;-144.73;100.00;54465.16;5010709;28;20060;-74
2023/03/15 03:14:46;;;;;;;15.80;4.17;;;;;;;-144.73;100.00;54473.38;4992789;28;20018;-75
2023/03/15 03:17:11;;;;;;;10.73;4.23;;;;;;;-144.73;100.00;54477.47;4993600;28;20505;-74
2023/03/15 03:19:37;;;;;;;13.53;5.40;;;;;;;-144.73;100.00;54514.44;4993161;28;20028;-73
2023/03/15 03:22:03;;;;;;;15.57;5.27;;;;;;;-144.73;100.00;54504.16;5001191;28;20078;-74
2023/03/15 03:24:28;;;;;;;12.20;5.33;;;;;;;-144.73;100.00;54508.28;4993155;28;20029;-74
2023/03/15 03:26:56;;;;;;;11.50;5.03;;;;;;;-144.73;100.00;54483.66;5011253;28;20042;-74
2023/03/15 03:29:23;;;;;;;14.17;5.30;;;;;;;-144.73;100.00;54477.47;5017824;28;20470;-75
2023/03/15 03:31:49;;;;;;;11.07;4.10;;;;;;;-144.73;100.00;54481.59;5008594;28;20040;-75
2023/03/15 03:34:15;;;;;;;10.60;4.87;;;;;;;-144.73;100.00;54485.69;4997618;28;20101;-75
2023/03/15 03:36:42;;;;;;;10.10;5.10;;;;;;;-144.73;100.00;54489.81;4999857;28;20057;-75
2023/03/15 03:39:08;;;;;;;14.30;5.13;;;;;;;-144.73;100.00;54477.47;4984245;28;20025;-75
2023/03/15 03:41:33;;;;;;;17.97;5.60;;;;;;;-144.73;100.00;54510.31;5010410;28;20044;-75
2023/03/15 03:43:58;;;;;;;17.20;6.57;;;;;;;-144.73;100.00;54485.69;4992937;28;20097;-75
2023/03/15 03:46:24;;;;;;;13.93;6.10;;;;;;;-144.73;100.00;54485.69;4997417;28;20556;-76
2023/03/15 03:48:49;;;;;;;19.10;7.03;;;;;;;-144.73;100.00;54473.38;4989174;28;20022;-75
2023/03/15 03:51:15;;;;;;;18.17;6.83;;;;;;;-144.73;100.00;54508.28;4995854;28;20050;-75
2023/03/15 03:53:40;;;;;;;16.20;7.03;;;;;;;-144.73;100.00;54473.38;4996355;28;20117;-75
2023/03/15 03:56:07;;;;;;;23.27;7.17;;;;;;;-144.73;100.00;54498.00;4985316;28;20407;-74
2023/03/15 03:58:32;;;;;;;24.43;7.73;;;;;;;-144.73;100.00;54510.31;4999022;28;20422;-74
2023/03/15 04:00:58;;;;;;;28.60;7.60;;;;;;;-144.73;100.00;54473.38;4995439;28;20034;-77
2023/03/15 04:03:25;;;;;;;18.57;6.70;;;;;;;-144.73;100.00;54485.69;4993176;28;20050;-77
2023/03/15 04:05:55;;;;;;;26.30;8.17;;;;;;;-144.73;100.00;54481.59;5006853;28;20069;-77
2023/03/15 04:08:22;;;;;;;20.90;8.43;;;;;;;-144.73;100.00;54495.97;4996046;28;20038;-77
2023/03/15 04:10:52;;;;;;;17.13;6.63;;;;;;;-144.73;100.00;54522.63;5000615;28;20034;-77
2023/03/15 04:13:18;;;;;;;20.10;5.83;;;;;;;-144.73;100.00;54500.06;5001096;28;20035;-77
2023/03/15 04:15:44;;;;;;;15.20;5.83;;;;;;;-144.73;100.00;54493.91;5009386;28;20073;-76
2023/03/15 04:18:09;;;;;;;18.23;6.50;;;;;;;-144.73;100.00;54498.00;4995708;28;20077;-77
2023/03/15 04:20:35;;;;;;;15.90;4.87;;;;;;;-144.73;100.00;54510.31;5018262;28;20112;-76
2023/03/15 04:23:00;;;;;;;11.70;3.77;;;;;;;-144.73;100.00;54440.53;5005576;28;20117;-77
2023/03/15 04:25:26;;;;;;;16.93;4.10;;;;;;;-144.73;100.00;54477.47;5000903;28;20030;-77
2023/03/15 04:27:58;;;;;;;16.90;5.03;;;;;;;-144.73;100.00;54518.53;4998404;28;20057;-77
2023/03/15 04:30:28;;;;;;;10.63;3.80;;;;;;;-144.73;100.00;54493.91;4995976;28;20030;-77
2023/03/15 04:33:02;;;;;;;15.27;3.77;;;;;;;-144.73;100.00;54469.28;5003407;28;20128;-77
2023/03/15 04:35:29;;;;;;;12.57;4.37;;;;;;;-144.73;100.00;54473.38;4995812;28;20030;-77
2023/03/15 04:37:55;;;;;;;13.20;4.40;;;;;;;-144.73;100.00;54481.59;5012988;28;20042;-77
2023/03/15 04:40:22;;;;;;;15.37;4.47;;;;;;;-144.73;100.00;54485.69;5028636;28;20445;-77
2023/03/15 04:42:57;;;;;;;15.53;5.10;;;;;;;-144.73;100.00;54477.47;4987242;28;20049;-76
2023/03/15 04:45:23;;;;;;;13.10;4.53;;;;;;;-144.73;100.00;54518.53;5002718;28;20547;-76
2023/03/15 04:47:49;;;;;;;10.17;4.60;;;;;;;-144.73;100.00;54502.13;5017227;28;20046;-77
2023/03/15 04:50:15;;;;;;;11.10;4.17;;;;;;;-144.73;100.00;54481.59;4992505;28;20382;-77
2023/03/15 04:52:41;;;;;;;17.10;4.97;;;;;;;-144.73;100.00;54502.13;4982179;28;20041;-77
2023/03/15 04:55:07;;;;;;;15.17;4.43;;;;;;;-144.73;100.00;54506.22;4993324;28;20057;-77
2023/03/15 04:57:32;;;;;;;11.20;3.83;;;;;;;-144.73;100.00;54495.97;5006393;28;20045;-77
2023/03/15 04:59:58;;;;;;;12.83;4.73;;;;;;;-144.73;100.00;54489.81;4991889;28;20041;-77
2023/03/15 05:02:23;;;;;;;14.97;4.90;;;;;;;-144.73;100.00;54510.31;4990964;28;20453;-77
2023/03/15 05:04:48;;;;;;;14.13;5.23;;;;;;;-144.73;100.00;54485.69;4991699;28;20026;-76
2023/03/15 05:07:13;;;;;;;24.33;7.77;;;;;;;-144.73;100.00;54473.38;5019785;28;20060;-77
2023/03/15 05:09:39;;;;;;;14.77;6.60;;;;;;;-144.73;100.00;54518.53;4995310;28;20034;-76
2023/03/15 05:12:04;;;;;;;16.17;7.60;;;;;;;-144.73;100.00;54469.28;5012103;28;20046;-76
2023/03/15 05:14:31;;;;;;;17.03;8.57;;;;;;;-144.73;100.00;54498.00;5001428;28;20029;-76
2023/03/15 05:16:58;;;;;;;17.97;8.77;;;;;;;-144.73;100.00;54489.81;4998907;28;20042;-76
2023/03/15 05:19:24;;;;;;;21.87;10.13;;;;;;;-144.73;100.00;54483.66;4999131;28;20103;-74
2023/03/15 05:21:50;;;;;;;19.07;10.03;;;;;;;-144.73;100.00;54489.81;5005654;28;20051;-74
2023/03/15 05:24:25;;;;;;;21.77;11.53;;;;;;;-144.73;100.00;54477.47;4994973;28;20026;-75
2023/03/15 05:26:53;;;;;;;28.13;13.67;;;;;;;-144.73;100.00;54485.69;5002039;28;20053;-75
2023/03/15 05:29:22;;;;;;;31.77;15.03;;;;;;;-144.73;100.00;54506.22;4993298;28;20447;-75
2023/03/15 05:31:51;;;;;;;39.43;17.80;;;;;;;-144.73;100.00;54493.91;4990227;28;20038;-75
2023/03/15 05:34:17;;;;;;;41.30;16.53;;;;;;;-144.73;100.00;54493.91;5008184;28;20046;-75
2023/03/15 05:36:42;;;;;;;37.30;16.97;;;;;;;-144.73;100.00;54467.22;5011774;28;20045;-75
2023/03/15 05:39:08;;;;;;;34.40;16.03;;;;;;;-144.73;100.00;54493.91;4994694;28;20053;-75
2023/03/15 05:41:33;;;;;;;36.00;16.73;;;;;;;-144.73;100.00;54498.00;4986191;28;20054;-75
2023/03/15 05:43:59;;;;;;;40.87;17.23;;;;;;;-144.73;100.00;54547.28;4985761;28;20034;-75
2023/03/15 05:46:24;;;;;;;41.83;18.53;;;;;;;-144.73;100.00;54502.13;4993816;28;20069;-75
2023/03/15 05:48:50;;;;;;;39.90;18.20;;;;;;;-144.73;100.00;54456.97;5011833;28;20399;-75
2023/03/15 05:51:15;;;;;;;42.50;20.27;;;;;;;-144.73;100.00;54506.22;5010143;28;20580;-75
2023/03/15 05:53:41;;;;;;;46.33;18.53;;;;;;;-144.73;100.00;54493.91;4994051;28;20022;-75
2023/03/15 05:56:07;;;;;;;40.37;17.07;;;;;;;-144.73;100.00;54518.53;5001037;28;20045;-75
2023/03/15 05:58:33;;;;;;;47.87;19.23;;;;;;;-144.73;100.00;54489.81;4999097;28;20048;-75
2023/03/15 06:01:00;;;;;;;37.40;17.43;;;;;;;-144.73;100.00;54493.91;4996710;28;20124;-75
2023/03/15 06:03:27;;;;;;;34.87;17.70;;;;;;;-144.73;100.00;54487.75;5010309;28;20036;-75
2023/03/15 06:05:52;;;;;;;37.07;16.33;;;;;;;-144.73;100.00;54498.00;4994076;28;20034;-75
2023/03/15 06:08:18;;;;;;;34.53;16.30;;;;;;;-144.73;100.00;54473.38;5001376;28;20041;-75
2023/03/15 06:10:43;;;;;;;38.27;19.03;;;;;;;-144.73;100.00;54502.13;4991116;28;20037;-75
2023/03/15 06:13:08;;;;;;;45.77;17.33;;;;;;;-144.73;100.00;54473.38;4991073;28;20450;-75
2023/03/15 06:15:34;;;;;;;41.90;20.83;;;;;;;-144.73;100.00;54491.84;4991851;28;20049;-75
2023/03/15 06:17:59;;;;;;;36.43;17.40;;;;;;;-144.73;100.00;54506.22;5010533;28;20038;-75
2023/03/15 06:20:25;;;;;;;45.80;16.30;;;;;;;-144.73;100.00;54498.00;5010956;28;20033;-75
2023/03/15 06:22:50;;;;;;;41.37;16.23;;;;;;;-144.73;100.00;54493.91;4993061;28;20038;-75
2023/03/15 06:25:16;;;;;;;33.77;15.63;;;;;;;-144.73;100.00;54473.38;5010846;28;20068;-75
2023/03/15 06:27:41;;;;;;;38.37;16.17;;;;;;;-144.73;100.00;54493.91;4993088;28;20045;-75
2023/03/15 06:30:07;;;;;;;41.70;18.87;;;;;;;-144.73;100.00;54469.28;5011283;28;20021;-75
2023/03/15 06:32:32;;;;;;;32.30;14.47;;;;;;;-144.73;100.00;54489.81;5015894;28;20045;-74
2023/03/15 06:34:58;;;;;;;30.00;14.60;;;;;;;-144.73;100.00;54493.91;5012201;28;20117;-76
2023/03/15 06:37:23;;;;;;;38.40;17.40;;;;;;;-144.73;100.00;54508.28;4989853;28;20038;-75
2023/03/15 06:39:50;;;;;;;33.93;18.17;;;;;;;-144.73;100.00;54469.28;4989005;28;20045;-74
2023/03/15 06:42:15;;;;;;;50.97;17.43;;;;;;;-144.73;100.00;54543.16;5017407;28;20041;-74
2023/03/15 06:44:42;;;;;;;43.17;17.57;;;;;;;-144.73;100.00;54481.59;4993164;28;20033;-75
2023/03/15 06:47:09;;;;;;;40.63;17.80;;;;;;;-144.73;100.00;54461.06;4992887;28;20046;-75
2023/03/15 06:49:35;;;;;;;46.40;18.77;;;;;;;-144.73;100.00;54512.38;4998471;28;20046;-74
2023/03/15 06:52:00;;;;;;;40.63;17.33;;;;;;;-144.73;100.00;54456.97;5003919;28;20062;-73
2023/03/15 06:54:25;;;;;;;45.70;17.87;;;;;;;-144.73;100.00;54491.84;4993422;28;20108;-73
2023/03/15 06:56:51;;;;;;;29.93;14.00;;;;;;;-144.73;100.00;54465.16;4993478;28;20046;-74
2023/03/15 06:59:16;;;;;;;28.43;15.20;;;;;;;-144.73;100.00;54469.28;5003016;28;20033;-73
2023/03/15 07:01:42;;;;;;;36.20;16.10;;;;;;;-144.73;100.00;54530.84;5001126;28;20052;-73
2023/03/15 07:04:08;;;;;;;33.37;14.90;;;;;;;-144.73;100.00;54518.53;4991358;28;20048;-75
2023/03/15 07:06:34;;;;;;;44.03;16.20;;;;;;;-144.73;100.00;54493.91;5007944;28;20050;-75
2023/03/15 07:09:00;;;;;;;32.43;16.43;;;;;;;-144.73;100.00;54506.22;4993104;28;20077;-73
2023/03/15 07:11:25;;;;;;;33.60;15.77;;;;;;;-144.73;100.00;54475.44;4990761;28;20069;-76
2023/03/15 07:13:51;;;;;;;40.03;17.07;;;;;;;-144.73;100.00;54522.63;5000125;28;20021;-73
2023/03/15 07:16:16;;;;;;;34.83;17.30;;;;;;;-144.73;100.00;54489.81;4993728;28;20479;-74
2023/03/15 07:18:41;;;;;;;36.73;14.97;;;;;;;-144.73;100.00;54514.44;4985214;28;20501;-73
2023/03/15 07:21:07;;;;;;;33.00;15.40;;;;;;;-144.73;100.00;54463.13;5008878;28;20026;-69
2023/03/15 07:23:32;;;;;;;39.13;16.80;;;;;;;-144.73;100.00;54506.22;5001474;28;20475;-70
2023/03/15 07:25:58;;;;;;;33.70;15.77;;;;;;;-144.73;100.00;54477.47;5025632;28;20093;-70
2023/03/15 07:28:24;;;;;;;45.60;17.73;;;;;;;-144.73;100.00;54481.59;5005066;28;20117;-70
2023/03/15 07:30:52;;;;;;;42.00;16.40;;;;;;;-144.73;100.00;54518.53;5005674;28;20041;-70
2023/03/15 07:33:21;;;;;;;42.47;15.87;;;;;;;-144.73;100.00;54473.38;5005535;28;20037;-71
2023/03/15 07:35:48;;;;;;;29.93;13.67;;;;;;;-144.73;100.00;54508.28;5011113;28;20038;-71
2023/03/15 07:38:13;;;;;;;27.00;11.30;;;;;;;-144.73;100.00;54498.00;5004652;28;20042;-71
2023/03/15 07:40:38;;;;;;;24.83;10.53;;;;;;;-144.73;100.00;54506.22;4985949;28;20038;-71
2023/03/15 07:43:05;;;;;;;35.80;12.13;;;;;;;-144.73;100.00;54489.81;5003586;28;20042;-71
2023/03/15 07:45:30;;;;;;;32.07;11.70;;;;;;;-144.73;100.00;54522.63;4984960;28;20044;-71
2023/03/15 07:47:55;;;;;;;21.37;10.17;;;;;;;-144.73;100.00;54483.66;5007343;28;20120;-71
2023/03/15 07:50:23;;;;;;;18.67;8.57;;;;;;;-144.73;100.00;54495.97;5003076;28;20572;-71
2023/03/15 07:52:49;;;;;;;20.43;7.70;;;;;;;-144.73;100.00;54502.13;4981722;28;20041;-71
2023/03/15 07:55:14;;;;;;;15.20;6.23;;;;;;;-144.73;100.00;54510.31;5000384;28;20117;-71
2023/03/15 07:57:40;;;;;;;15.23;5.70;;;;;;;-144.73;100.00;54473.38;4984842;28;20073;-71
2023/03/15 08:00:06;;;;;;;19.00;6.57;;;;;;;-144.73;100.00;54489.81;4989877;28;20030;-70
2023/03/15 08:02:32;;;;;;;16.83;5.80;;;;;;;-144.73;100.00;54506.22;4990039;28;20034;-71
2023/03/15 08:04:57;;;;;;;19.53;6.20;;;;;;;-144.73;100.00;54485.69;4987075;28;20018;-71
2023/03/15 08:07:23;;;;;;;15.93;5.20;;;;;;;-144.73;100.00;54469.28;4989971;28;20046;-70
2023/03/15 08:09:48;;;;;;;14.97;5.80;;;;;;;-144.73;100.00;54514.44;4988202;28;20018;-70
2023/03/15 08:12:13;;;;;;;13.88;6.10;;;;;;;-144.73;100.00;54498.00;4983818;28;20116;-72
2023/03/15 08:14:39;;;;;;;9.85;5.35;;;;;;;-144.73;100.00;54485.69;4986507;28;20069;-71
2023/03/15 08:17:04;;;;;;;16.42;5.53;;;;;;;-144.73;100.00;54498.00;4989114;28;20045;-70
2023/03/15 08:19:29;;;;;;;14.07;5.65;;;;;;;-144.73;100.00;54456.97;4985521;28;20367;-70
2023/03/15 08:21:55;;;;;;;14.90;5.32;;;;;;;-144.73;100.00;54493.91;5000727;28;20037;-70
2023/03/15 08:24:20;;;;;;;11.95;5.90;;;;;;;-144.73;99.95;54489.81;5006846;28;20369;-71
2023/03/15 08:26:46;;;;;;;12.18;4.25;;;;;;;-144.73;99.91;54469.28;4989740;28;20046;-70
2023/03/15 08:29:12;;;;;;;9.20;4.00;;;;;;;-144.73;99.43;54477.47;4988945;28;20030;-70
2023/03/15 08:31:37;;;;;;;12.05;4.60;;;;;;;-144.73;99.14;54510.31;4988196;28;20089;-70
2023/03/15 08:34:03;;;;;;;10.48;4.80;;;;;;;-144.73;99.09;54510.31;4985806;28;20058;-70
2023/03/15 08:36:28;;;;;;;11.82;4.35;;;;;;;-144.73;98.25;54487.75;4988835;28;20129;-70
2023/03/15 08:38:53;;;;;;;9.88;4.70;;;;;;;-144.73;98.25;54489.81;4989147;28;20029;-70
2023/03/15 08:41:19;;;;;;;14.25;4.88;;;;;;;-144.73;99.86;54522.63;4978593;28;20084;-70
2023/03/15 08:43:44;;;;;;;14.70;3.13;;;;;;;-144.73;98.25;54526.75;4988884;28;20033;-70
2023/03/15 08:46:10;;;;;;;5.50;2.27;;;;;;;-144.73;97.59;54520.59;5006169;28;20049;-72
2023/03/15 08:48:35;;;;;;;15.50;2.37;;;;;;;-144.73;97.33;54508.28;4990158;28;20049;-72
2023/03/15 08:51:03;;;;;;;21.23;2.33;;;;;;;-144.73;97.22;54461.06;4985306;28;20041;-72
2023/03/15 08:53:29;;;;;;;8.53;2.63;;;;;;;-144.73;97.50;54510.31;4991331;28;20044;-72
2023/03/15 08:55:55;;;;;;;13.87;2.63;;;;;;;-144.73;97.80;54477.47;4994733;28;20044;-70
2023/03/15 08:58:20;;;;;;;12.93;3.70;;;;;;;-144.73;97.03;54522.63;4989933;28;20513;-72
2023/03/15 09:00:47;;;;;;;9.70;2.63;;;;;;;-144.73;96.83;54465.16;4990784;28;20112;-72
2023/03/15 09:03:14;;;;;;;9.93;2.85;;;;;;;-144.73;96.48;54485.69;5005377;28;20042;-71
2023/03/15 09:05:40;;;;;;;14.73;3.38;;;;;;;-144.73;96.55;54473.38;4978735;28;20059;-70
2023/03/15 09:08:05;;;;;;;10.38;3.05;;;;;;;-144.73;95.78;54448.75;5007612;28;20530;-71
2023/03/15 09:10:31;;;;;;;16.70;3.40;;;;;;;-144.73;94.30;54475.44;4990244;28;20458;-70
2023/03/15 09:12:56;;;;;;;11.25;3.03;;;;;;;-144.73;94.20;54539.06;4997418;28;20042;-70
2023/03/15 09:15:22;;;;;;;11.32;2.80;;;;;;;-144.73;94.70;54506.22;5009984;28;20033;-70
2023/03/15 09:17:49;;;;;;;11.65;2.67;;;;;;;-144.73;95.49;54514.44;4995886;28;20038;-70
2023/03/15 09:20:15;;;;;;;9.85;2.97;;;;;;;-144.73;96.50;54473.38;5013951;28;20117;-69
2023/03/15 09:22:42;;;;;;;11.35;2.40;;;;;;;-144.73;97.17;54493.91;4995080;28;20049;-70
2023/03/15 09:25:08;;;;;;;12.80;3.05;;;;;;;-144.73;98.70;54514.44;4990827;28;20121;-70
2023/03/15 09:27:34;;;;;;;10.80;2.80;;;;;;;-144.73;100.00;54504.16;4981841;28;20057;-70
2023/03/15 09:30:00;;;;;;;12.23;3.20;;;;;;;-144.73;100.00;54469.28;4990008;28;20025;-70
2023/03/15 09:32:25;;;;;;;12.47;2.10;;;;;;;-144.73;100.00;54518.53;4988599;28;20046;-69
2023/03/15 09:34:52;;;;;;;10.53;1.37;;;;;;;-144.73;100.00;54465.16;4995948;28;20403;-71
2023/03/15 09:37:17;;;;;;;11.17;2.10;;;;;;;-144.73;100.00;54456.97;5005554;28;20129;-70
2023/03/15 09:39:43;;;;;;;8.90;2.00;;;;;;;-144.73;100.00;54502.13;4982175;28;20165;-70
2023/03/15 09:42:47;;;;;;;12.00;2.20;;;;;;;-144.73;100.00;54502.13;4988608;28;20038;-71
2023/03/15 09:45:54;;;;;;;23.83;2.80;;;;;;;-144.73;100.00;54467.22;4974305;28;20048;-70
2023/03/15 09:48:25;;;;;;;9.70;2.37;;;;;;;-144.73;100.00;54502.13;5003397;28;20093;-69
2023/03/15 09:50:56;;;;;;;7.40;1.50;;;;;;;-144.73;100.00;54481.59;5004190;28;20048;-69
2023/03/15 09:53:49;;;;;;;9.95;2.40;;;;;;;-144.73;100.00;54489.81;4985932;28;20108;-69
2023/03/15 09:56:32;;;;;;;8.50;2.00;;;;;;;-144.73;100.00;54502.13;4988603;28;20065;-69
2023/03/15 09:59:00;;;;;;;8.83;1.90;;;;;;;-144.73;99.45;54522.63;5000923;28;20036;-69
2023/03/15 10:01:38;;;;;;;5.88;1.98;;;;;;;-144.73;99.86;54473.38;4987366;28;20076;-69
2023/03/15 10:04:29;;;;;;;11.82;2.25;;;;;;;-144.73;98.03;54514.44;4986517;28;20030;-70
2023/03/15 10:07:00;;;;;;;10.70;2.10;;;;;;;-144.73;97.11;54489.81;4984077;28;20467;-70
2023/03/15 10:09:33;;;;;;;12.40;2.53;;;;;;;-144.73;95.82;54469.28;4997069;28;20018;-70
2023/03/15 10:12:12;;;;;;;21.85;3.03;;;;;;;-144.73;97.49;54493.91;5003812;28;20041;-70
2023/03/15 10:14:59;;;;;;;12.55;2.63;;;;;;;-144.73;99.30;54539.06;4984562;28;20022;-70
2023/03/15 10:17:35;;;;;;;16.07;2.17;;;;;;;-144.73;100.00;54500.06;5007909;28;20057;-70
2023/03/15 10:20:11;;;;;;;16.60;2.77;;;;;;;-144.73;100.00;54493.91;5015057;28;20034;-71
2023/03/15 10:22:51;;;;;;;24.73;2.57;;;;;;;-144.73;100.00;54487.75;5003248;28;20030;-71
2023/03/15 10:25:24;;;;;;;13.83;2.07;;;;;;;-144.73;100.00;54465.16;4986802;28;20030;-69
2023/03/15 10:28:08;;;;;;;13.13;2.03;;;;;;;-144.73;100.00;54461.06;4986877;28;20117;-71
2023/03/15 10:30:36;;;;;;;23.57;3.03;;;;;;;-144.73;100.00;54444.66;4987618;28;20037;-69
2023/03/15 10:33:25;;;;;;;16.05;2.47;;;;;;;-144.73;100.00;54485.69;5004180;28;20398;-70
2023/03/15 10:35:50;;;;;;;12.05;1.88;;;;;;;-144.73;100.00;54493.91;4985995;28;20033;-70
2023/03/15 10:38:19;;;;;;;23.40;2.92;;;;;;;-144.73;100.00;54465.16;4987467;28;20036;-68
2023/03/15 10:40:47;;;;;;;15.32;2.92;;;;;;;-144.73;100.00;54510.31;5005870;28;20026;-71
2023/03/15 10:43:29;;;;;;;12.85;2.08;;;;;;;-144.73;100.00;54522.63;5003071;28;20037;-69
2023/03/15 10:46:12;;;;;;;17.98;2.40;;;;;;;-144.73;99.55;54516.47;4985974;28;20037;-69
2023/03/15 10:48:50;;;;;;;20.92;3.35;;;;;;;-144.73;97.77;54498.00;4984104;28;20050;-69
2023/03/15 10:51:22;;;;;;;12.68;2.78;;;;;;;-144.73;96.72;54481.59;4986506;28;20069;-70
2023/03/15 10:54:10;;;;;;;25.70;3.90;;;;;;;-144.73;97.26;54539.06;5005038;28;20037;-69
2023/03/15 10:57:12;;;;;;;20.73;2.70;;;;;;;-144.73;98.16;54485.69;4989396;28;20041;-71
2023/03/15 10:59:54;;;;;;;13.65;2.75;;;;;;;-144.73;98.66;54500.06;4977122;28;20030;-70
2023/03/15 11:02:22;;;;;;;8.85;2.55;;;;;;;-144.73;98.80;54498.00;5007797;28;20030;-72
2023/03/15 11:04:59;;;;;;;10.45;2.17;;;;;;;-144.73;98.36;54506.22;4991639;28;20037;-72
2023/03/15 11:07:24;;;;;;;11.13;2.58;;;;;;;-144.73;96.15;54485.69;4995975;28;20097;-69
2023/03/15 11:10:19;;;;;;;8.82;1.75;;;;;;;-144.73;92.38;54500.06;4992170;28;20104;-69
2023/03/15 11:12:45;;;;;;;5.95;1.42;;;;;;;-144.73;92.56;54452.84;5013371;28;20042;-70
2023/03/15 11:15:13;;;;;;;13.93;1.10;;;;;;;-144.73;92.74;54539.06;5007261;28;20030;-70
2023/03/15 11:17:46;;;;;;;10.75;1.92;;;;;;;-144.73;93.52;54489.81;4991522;28;20030;-71
2023/03/15 11:20:35;;;;;;;3.20;1.45;;;;;;;-144.73;93.09;54485.69;4990322;28;20047;-71